Time;durP1;ratioP1;P1;durP2;ratioP2;P2;SDS_P1;SDS_P2;PMS_P1;PMS_P2;Temp;Humidity;BMP_temperature;BMP_pressure;BME280_temperature;BME280_humidity;BME280_pressure;Samples;Min_cycle;Max_cycle;Signal;HPM_P1;HPM_P2
2021/12/23 00:01:31;;;;;;;20.20;11.82;;;;;;;;;;5057174;28;20041;-58
2021/12/23 00:03:58;;;;;;;20.83;12.30;;;;;;;;;;5061940;28;20045;-58
2021/12/23 00:06:24;;;;;;;22.45;12.75;;;;;;;;;;5061204;28;20048;-59
2021/12/23 00:08:50;;;;;;;18.83;12.40;;;;;;;;;;5045372;28;20148;-59
2021/12/23 00:11:16;;;;;;;20.42;13.05;;;;;;;;;;5061731;28;20059;-59
2021/12/23 00:13:50;;;;;;;21.95;13.05;;;;;;;;;;5061983;28;20037;-58
2021/12/23 00:16:19;;;;;;;21.83;14.20;;;;;;;;;;5060915;28;20099;-59
2021/12/23 00:18:53;;;;;;;24.27;13.68;;;;;;;;;;5061696;28;20056;-58
2021/12/23 00:24:04;;;;;;;22.65;13.70;;;;;;;;;;5100920;28;20109;-59
2021/12/23 00:26:30;;;;;;;22.90;12.40;;;;;;;;;;5104256;28;20068;-59
2021/12/23 00:28:57;;;;;;;23.67;13.88;;;;;;;;;;5104277;28;20064;-59
2021/12/23 00:31:23;;;;;;;21.52;12.98;;;;;;;;;;5104279;28;20052;-58
2021/12/23 00:33:49;;;;;;;23.02;13.05;;;;;;;;;;5104524;28;20079;-59
2021/12/23 00:36:15;;;;;;;24.10;13.82;;;;;;;;;;5103589;28;20047;-59
2021/12/23 00:38:54;;;;;;;23.85;13.65;;;;;;;;;;5102901;28;20135;-59
2021/12/23 00:41:22;;;;;;;23.83;13.25;;;;;;;;;;5104223;28;20054;-58
2021/12/23 00:43:49;;;;;;;22.70;13.35;;;;;;;;;;5104040;28;20048;-59
2021/12/23 00:46:15;;;;;;;19.77;12.80;;;;;;;;;;5104259;28;20055;-58
2021/12/23 00:48:41;;;;;;;23.65;14.18;;;;;;;;;;5104466;28;20048;-58
2021/12/23 00:51:07;;;;;;;21.42;13.40;;;;;;;;;;5103616;28;20044;-59
2021/12/23 00:53:38;;;;;;;20.33;12.88;;;;;;;;;;5126413;28;20069;-59
2021/12/23 00:56:05;;;;;;;22.98;14.85;;;;;;;;;;5143877;28;20035;-59
2021/12/23 00:58:31;;;;;;;24.58;13.82;;;;;;;;;;5144971;28;20360;-59
2021/12/23 01:01:01;;;;;;;24.17;13.93;;;;;;;;;;5145512;28;20092;-58
2021/12/23 01:03:28;;;;;;;22.27;14.05;;;;;;;;;;5145038;28;20444;-58
2021/12/23 01:05:54;;;;;;;22.42;13.80;;;;;;;;;;5126227;28;20476;-58
2021/12/23 01:08:20;;;;;;;20.95;13.43;;;;;;;;;;5145043;28;20054;-60
2021/12/23 01:10:53;;;;;;;23.13;13.65;;;;;;;;;;5144768;28;20044;-58
2021/12/23 01:13:20;;;;;;;20.67;13.20;;;;;;;;;;5144777;28;20078;-60
2021/12/23 01:18:36;;;;;;;23.05;13.48;;;;;;;;;;5144947;28;20280;-59
2021/12/23 01:21:04;;;;;;;23.67;14.27;;;;;;;;;;5125972;28;20039;-59
2021/12/23 01:23:31;;;;;;;23.23;13.23;;;;;;;;;;5144843;28;20497;-58
2021/12/23 01:25:57;;;;;;;21.50;12.85;;;;;;;;;;5144893;28;20035;-57
2021/12/23 01:28:25;;;;;;;19.90;12.70;;;;;;;;;;5144152;28;20043;-59
2021/12/23 01:30:51;;;;;;;21.23;12.93;;;;;;;;;;5126608;28;20070;-58
2021/12/23 01:33:18;;;;;;;21.15;12.52;;;;;;;;;;5145235;28;20101;-59
2021/12/23 01:35:50;;;;;;;22.27;14.00;;;;;;;;;;5144269;28;20035;-59
2021/12/23 01:38:16;;;;;;;20.83;12.48;;;;;;;;;;5144619;28;20053;-58
2021/12/23 01:40:46;;;;;;;22.00;13.30;;;;;;;;;;5144706;28;20043;-59
2021/12/23 01:43:12;;;;;;;22.67;13.82;;;;;;;;;;5146831;27;20051;-59
2021/12/23 01:45:42;;;;;;;24.00;12.73;;;;;;;;;;5148718;27;20047;-59
2021/12/23 01:48:09;;;;;;;16.83;10.10;;;;;;;;;;5148344;27;20035;-58
2021/12/23 01:50:37;;;;;;;21.80;14.32;;;;;;;;;;5129233;27;20082;-59
2021/12/23 01:53:03;;;;;;;24.75;15.02;;;;;;;;;;5148203;27;20059;-59
2021/12/23 01:55:30;;;;;;;22.05;13.73;;;;;;;;;;5129778;27;20057;-58
2021/12/23 01:57:56;;;;;;;18.45;10.93;;;;;;;;;;5148055;27;20059;-58
2021/12/23 02:00:25;;;;;;;18.73;12.60;;;;;;;;;;5147755;27;20046;-59
2021/12/23 02:02:52;;;;;;;15.07;11.05;;;;;;;;;;5129892;27;20054;-58
2021/12/23 02:05:18;;;;;;;15.57;10.73;;;;;;;;;;5147449;27;20051;-59
2021/12/23 02:07:45;;;;;;;21.55;13.50;;;;;;;;;;5148232;27;20130;-58
2021/12/23 02:10:11;;;;;;;24.23;14.73;;;;;;;;;;5129630;27;20055;-59
2021/12/23 02:12:37;;;;;;;32.22;17.60;;;;;;;;;;5147625;27;20039;-58
2021/12/23 02:15:04;;;;;;;32.63;17.77;;;;;;;;;;5147668;27;20597;-58
2021/12/23 02:17:34;;;;;;;29.15;14.90;;;;;;;;;;5129444;27;20474;-58
2021/12/23 02:20:00;;;;;;;27.27;15.93;;;;;;;;;;5147494;27;20379;-58
2021/12/23 02:22:26;;;;;;;24.55;14.13;;;;;;;;;;5147432;27;20047;-59
2021/12/23 02:24:52;;;;;;;25.17;14.35;;;;;;;;;;5147694;27;20039;-59
2021/12/23 02:27:18;;;;;;;30.40;15.77;;;;;;;;;;5147170;27;20050;-59
2021/12/23 02:29:44;;;;;;;26.92;15.48;;;;;;;;;;5129164;27;20563;-58
2021/12/23 02:32:11;;;;;;;25.42;16.13;;;;;;;;;;5147065;27;20080;-59
2021/12/23 02:34:37;;;;;;;26.05;16.23;;;;;;;;;;5147481;27;20054;-58
2021/12/23 02:37:03;;;;;;;24.98;15.15;;;;;;;;;;5146767;27;20115;-60
2021/12/23 02:39:30;;;;;;;24.17;16.20;;;;;;;;;;5128999;27;20035;-58
2021/12/23 02:41:56;;;;;;;23.98;14.18;;;;;;;;;;5147267;27;20122;-59
2021/12/23 02:44:22;;;;;;;28.10;14.73;;;;;;;;;;5128480;27;20053;-59
2021/12/23 02:46:49;;;;;;;24.45;14.23;;;;;;;;;;5147288;27;20110;-59
2021/12/23 02:49:15;;;;;;;23.30;15.43;;;;;;;;;;5147216;27;20039;-59
2021/12/23 02:51:41;;;;;;;22.92;13.43;;;;;;;;;;5127514;27;20293;-59
2021/12/23 02:54:08;;;;;;;23.08;14.60;;;;;;;;;;5147066;27;20054;-59
2021/12/23 02:56:36;;;;;;;22.55;13.90;;;;;;;;;;5147521;27;20072;-59
2021/12/23 02:59:02;;;;;;;21.63;14.00;;;;;;;;;;5146807;27;20043;-59
2021/12/23 03:01:28;;;;;;;23.95;15.40;;;;;;;;;;5146960;27;20107;-58
2021/12/23 03:03:54;;;;;;;20.10;12.27;;;;;;;;;;5142318;27;20085;-59
2021/12/23 03:06:22;;;;;;;26.98;16.95;;;;;;;;;;5125740;28;20107;-58
2021/12/23 03:08:56;;;;;;;22.20;13.02;;;;;;;;;;5126311;28;20051;-59
2021/12/23 03:11:23;;;;;;;24.23;14.70;;;;;;;;;;5126302;28;20040;-58
2021/12/23 03:13:50;;;;;;;24.38;15.85;;;;;;;;;;5125849;28;20444;-59
2021/12/23 03:16:19;;;;;;;23.52;13.43;;;;;;;;;;5125739;28;20052;-59
2021/12/23 03:18:45;;;;;;;26.00;15.57;;;;;;;;;;5116486;27;20138;-59
2021/12/23 03:21:11;;;;;;;30.30;15.63;;;;;;;;;;5145592;27;20073;-59
2021/12/23 03:23:37;;;;;;;21.60;13.15;;;;;;;;;;5145956;27;20074;-58
2021/12/23 03:26:04;;;;;;;25.20;15.48;;;;;;;;;;5146596;27;20047;-58
2021/12/23 03:28:31;;;;;;;21.83;14.95;;;;;;;;;;5146225;27;20077;-58
2021/12/23 03:30:57;;;;;;;24.95;13.93;;;;;;;;;;5127823;27;20047;-58
2021/12/23 03:33:23;;;;;;;23.80;14.77;;;;;;;;;;5146022;27;20091;-58
2021/12/23 03:35:49;;;;;;;22.67;14.52;;;;;;;;;;5145589;27;20098;-59
2021/12/23 03:38:16;;;;;;;31.92;15.50;;;;;;;;;;5146218;27;20043;-59
2021/12/23 03:40:43;;;;;;;24.08;15.02;;;;;;;;;;5146669;27;20043;-59
2021/12/23 03:43:14;;;;;;;25.83;15.75;;;;;;;;;;5145810;27;20423;-59
2021/12/23 03:45:42;;;;;;;21.75;14.38;;;;;;;;;;5145994;27;20046;-59
2021/12/23 03:48:08;;;;;;;24.40;15.10;;;;;;;;;;5127557;27;20464;-59
2021/12/23 03:50:35;;;;;;;29.48;15.77;;;;;;;;;;5116562;27;20043;-58
2021/12/23 03:53:01;;;;;;;24.15;14.63;;;;;;;;;;5123581;27;20049;-59
2021/12/23 03:55:27;;;;;;;25.63;15.50;;;;;;;;;;5145911;27;20531;-59
2021/12/23 03:57:53;;;;;;;24.35;13.50;;;;;;;;;;5145734;27;20074;-58
2021/12/23 04:00:21;;;;;;;27.70;15.10;;;;;;;;;;5145642;27;20102;-58
2021/12/23 04:02:47;;;;;;;23.50;14.73;;;;;;;;;;5145905;27;20046;-59
2021/12/23 04:05:14;;;;;;;27.30;16.08;;;;;;;;;;5126358;27;20577;-59
2021/12/23 04:07:40;;;;;;;25.58;15.48;;;;;;;;;;5126682;27;20131;-59
2021/12/23 04:10:07;;;;;;;26.52;13.77;;;;;;;;;;5145718;27;20118;-58
2021/12/23 04:12:33;;;;;;;24.20;14.70;;;;;;;;;;5145612;27;20102;-59
2021/12/23 04:14:59;;;;;;;20.23;13.93;;;;;;;;;;5145483;27;20074;-59
2021/12/23 04:17:25;;;;;;;24.90;15.00;;;;;;;;;;5145788;27;20106;-59
2021/12/23 04:19:52;;;;;;;21.55;13.52;;;;;;;;;;5145302;27;20498;-59
2021/12/23 04:22:18;;;;;;;26.08;15.05;;;;;;;;;;5145102;27;20083;-59
2021/12/23 04:24:44;;;;;;;24.67;14.57;;;;;;;;;;5145453;27;20086;-58
2021/12/23 04:27:10;;;;;;;24.25;14.55;;;;;;;;;;5145380;27;20047;-58
2021/12/23 04:29:36;;;;;;;26.58;14.70;;;;;;;;;;5145301;27;20043;-59
2021/12/23 04:32:02;;;;;;;22.02;15.23;;;;;;;;;;5145230;27;20156;-58
2021/12/23 04:34:29;;;;;;;26.85;15.55;;;;;;;;;;5145183;27;20095;-59
2021/12/23 04:36:55;;;;;;;26.70;15.15;;;;;;;;;;5145186;27;20051;-58
2021/12/23 04:39:21;;;;;;;28.25;15.15;;;;;;;;;;5145217;28;20041;-58
2021/12/23 04:41:47;;;;;;;23.63;14.23;;;;;;;;;;5145128;28;20149;-59
2021/12/23 04:44:14;;;;;;;26.42;14.75;;;;;;;;;;5144912;28;20043;-59
2021/12/23 04:46:40;;;;;;;25.70;16.38;;;;;;;;;;5145203;28;20039;-59
2021/12/23 04:49:06;;;;;;;23.80;15.10;;;;;;;;;;5127039;28;20444;-58
2021/12/23 04:51:32;;;;;;;24.33;13.32;;;;;;;;;;5126598;28;20046;-60
2021/12/23 04:53:58;;;;;;;29.27;14.70;;;;;;;;;;5126599;28;20459;-59
2021/12/23 04:56:24;;;;;;;29.13;15.55;;;;;;;;;;5144732;28;20082;-59
2021/12/23 04:58:50;;;;;;;29.95;16.27;;;;;;;;;;5144883;28;20066;-59
2021/12/23 05:01:20;;;;;;;22.10;14.30;;;;;;;;;;5144695;28;20050;-59
2021/12/23 05:03:47;;;;;;;24.92;14.93;;;;;;;;;;5126343;28;20473;-59
2021/12/23 05:06:14;;;;;;;26.38;15.38;;;;;;;;;;5144717;28;20126;-58
2021/12/23 05:08:40;;;;;;;24.67;14.93;;;;;;;;;;5145130;28;20421;-58
2021/12/23 05:11:06;;;;;;;22.38;14.15;;;;;;;;;;5144883;28;20128;-59
2021/12/23 05:13:32;;;;;;;22.17;14.35;;;;;;;;;;5144782;28;20043;-58
2021/12/23 05:15:58;;;;;;;25.15;14.63;;;;;;;;;;5126318;28;20041;-58
2021/12/23 05:18:25;;;;;;;25.20;14.77;;;;;;;;;;5148571;27;20074;-60
2021/12/23 05:20:51;;;;;;;26.85;15.10;;;;;;;;;;5130267;27;20130;-59
2021/12/23 05:23:17;;;;;;;25.88;14.75;;;;;;;;;;5148832;27;20047;-58
2021/12/23 05:25:43;;;;;;;23.08;13.98;;;;;;;;;;5148568;27;20113;-58
2021/12/23 05:28:09;;;;;;;28.17;14.48;;;;;;;;;;5130258;27;20066;-59
2021/12/23 05:30:35;;;;;;;25.15;14.48;;;;;;;;;;5148483;27;20456;-58
2021/12/23 05:33:02;;;;;;;24.42;15.00;;;;;;;;;;5148959;27;20084;-58
2021/12/23 05:35:28;;;;;;;24.02;14.73;;;;;;;;;;5147988;27;20098;-59
2021/12/23 05:37:54;;;;;;;25.10;14.70;;;;;;;;;;5148312;27;20326;-58
2021/12/23 05:40:24;;;;;;;26.33;14.68;;;;;;;;;;5148586;27;20043;-59
2021/12/23 05:42:51;;;;;;;23.23;14.07;;;;;;;;;;5148292;27;20089;-59
2021/12/23 05:45:17;;;;;;;19.60;12.98;;;;;;;;;;5148036;27;20055;-58
2021/12/23 05:47:44;;;;;;;23.02;14.07;;;;;;;;;;5130087;27;20043;-59
2021/12/23 05:50:11;;;;;;;24.30;15.33;;;;;;;;;;5147748;27;20054;-59
2021/12/23 05:52:37;;;;;;;27.17;15.15;;;;;;;;;;5148215;27;20069;-59
2021/12/23 05:55:07;;;;;;;21.40;12.75;;;;;;;;;;5148253;27;20165;-58
2021/12/23 05:57:34;;;;;;;22.15;14.82;;;;;;;;;;5129413;27;20055;-58
2021/12/23 06:00:00;;;;;;;24.27;15.30;;;;;;;;;;5148162;27;20447;-59
2021/12/23 06:02:27;;;;;;;26.95;15.20;;;;;;;;;;5129763;27;20072;-59
2021/12/23 06:04:53;;;;;;;23.88;14.00;;;;;;;;;;5129919;27;20122;-59
2021/12/23 06:07:19;;;;;;;24.02;14.57;;;;;;;;;;5147482;27;20406;-59
2021/12/23 06:09:45;;;;;;;24.15;13.40;;;;;;;;;;5148144;27;20126;-59
2021/12/23 06:12:11;;;;;;;23.83;14.75;;;;;;;;;;5147707;27;20061;-58
2021/12/23 06:14:38;;;;;;;27.55;15.15;;;;;;;;;;5147815;27;20126;-59
2021/12/23 06:17:04;;;;;;;27.50;15.82;;;;;;;;;;5147561;27;20077;-59
2021/12/23 06:19:30;;;;;;;25.48;15.18;;;;;;;;;;5147674;27;20071;-59
2021/12/23 06:21:56;;;;;;;26.13;16.33;;;;;;;;;;5146920;27;20043;-58
2021/12/23 06:24:22;;;;;;;29.00;16.17;;;;;;;;;;5147745;27;20047;-59
2021/12/23 06:26:48;;;;;;;25.42;14.43;;;;;;;;;;5147660;27;20146;-58
2021/12/23 06:29:14;;;;;;;25.73;16.98;;;;;;;;;;5147507;27;20051;-57
2021/12/23 06:31:41;;;;;;;25.02;14.82;;;;;;;;;;5147584;27;20042;-59
2021/12/23 06:34:07;;;;;;;22.27;14.85;;;;;;;;;;5147399;27;20096;-59
2021/12/23 06:36:33;;;;;;;25.38;14.88;;;;;;;;;;5146762;27;20070;-59
2021/12/23 06:38:59;;;;;;;26.58;15.50;;;;;;;;;;5147246;27;20047;-58
2021/12/23 06:41:25;;;;;;;25.40;15.35;;;;;;;;;;5142657;27;20042;-59
2021/12/23 06:43:51;;;;;;;27.10;16.35;;;;;;;;;;5145272;27;20051;-58
2021/12/23 06:46:17;;;;;;;25.30;15.88;;;;;;;;;;5144674;27;20050;-59
2021/12/23 06:48:44;;;;;;;23.02;14.30;;;;;;;;;;5144268;27;20059;-58
2021/12/23 06:51:10;;;;;;;27.20;16.08;;;;;;;;;;5125545;27;20075;-60
2021/12/23 06:53:37;;;;;;;25.73;16.40;;;;;;;;;;5144481;27;20059;-59
2021/12/23 06:56:03;;;;;;;26.27;15.40;;;;;;;;;;5146760;27;20411;-59
2021/12/23 06:58:32;;;;;;;23.33;15.15;;;;;;;;;;5144424;27;20047;-60
2021/12/23 07:00:58;;;;;;;30.67;16.13;;;;;;;;;;5123156;27;20069;-59
2021/12/23 07:03:40;;;;;;;26.63;16.33;;;;;;;;;;5125427;27;20315;-58
2021/12/23 07:06:07;;;;;;;28.55;16.50;;;;;;;;;;5144753;27;20265;-59
2021/12/23 07:08:35;;;;;;;23.30;15.32;;;;;;;;;;5145259;27;20074;-58
2021/12/23 07:11:01;;;;;;;29.15;17.70;;;;;;;;;;5144478;27;20474;-58
2021/12/23 07:13:27;;;;;;;29.27;16.23;;;;;;;;;;5144613;27;20126;-59
2021/12/23 07:15:56;;;;;;;27.77;16.70;;;;;;;;;;5126252;27;20047;-58
2021/12/23 07:18:22;;;;;;;26.27;16.17;;;;;;;;;;5144209;27;20494;-59
2021/12/23 07:20:48;;;;;;;29.95;18.85;;;;;;;;;;5143063;27;20126;-57
2021/12/23 07:23:14;;;;;;;31.48;17.65;;;;;;;;;;5122499;27;20119;-59
2021/12/23 07:25:40;;;;;;;32.15;18.95;;;;;;;;;;5140687;27;20063;-59
2021/12/23 07:28:06;;;;;;;35.83;19.38;;;;;;;;;;5142810;27;20051;-58
2021/12/23 07:30:32;;;;;;;28.65;18.42;;;;;;;;;;5143746;27;20066;-58
2021/12/23 07:33:00;;;;;;;31.73;18.85;;;;;;;;;;5125028;27;20068;-60
2021/12/23 07:35:26;;;;;;;28.45;18.52;;;;;;;;;;5138391;27;20035;-59
2021/12/23 07:37:52;;;;;;;34.13;20.35;;;;;;;;;;5133613;27;20123;-59
2021/12/23 07:40:18;;;;;;;32.88;20.35;;;;;;;;;;5142790;27;20035;-59
2021/12/23 07:42:54;;;;;;;30.27;18.45;;;;;;;;;;5144592;27;20058;-59
2021/12/23 07:45:21;;;;;;;29.52;18.20;;;;;;;;;;5131542;27;20040;-59
2021/12/23 07:47:47;;;;;;;34.17;20.05;;;;;;;;;;5107316;28;20052;-58
2021/12/23 07:50:13;;;;;;;33.05;19.13;;;;;;;;;;5126308;27;20099;-58
2021/12/23 07:52:39;;;;;;;34.65;19.80;;;;;;;;;;5126361;27;20064;-59
2021/12/23 07:55:06;;;;;;;31.17;20.02;;;;;;;;;;5145247;27;20043;-59
2021/12/23 07:57:32;;;;;;;38.10;21.10;;;;;;;;;;5127487;27;20392;-60
2021/12/23 07:59:59;;;;;;;31.70;19.40;;;;;;;;;;5122483;27;20118;-59
2021/12/23 08:02:25;;;;;;;33.50;19.65;;;;;;;;;;5145144;27;20127;-59
2021/12/23 08:04:51;;;;;;;35.78;20.88;;;;;;;;;;5145100;27;20043;-59
2021/12/23 08:07:17;;;;;;;30.08;18.45;;;;;;;;;;5145151;27;20039;-59
2021/12/23 08:09:43;;;;;;;36.58;19.35;;;;;;;;;;5127483;27;20126;-59
2021/12/23 08:12:10;;;;;;;38.08;20.95;;;;;;;;;;5139136;27;20054;-58
2021/12/23 08:14:36;;;;;;;27.52;17.77;;;;;;;;;;5117795;28;20096;-59
2021/12/23 08:17:02;;;;;;;34.00;20.38;;;;;;;;;;5109313;28;20059;-59
2021/12/23 08:19:29;;;;;;;26.90;17.08;;;;;;;;;;5125198;28;20523;-58
2021/12/23 08:21:55;;;;;;;28.23;17.55;;;;;;;;;;5124309;28;20050;-59
2021/12/23 08:24:21;;;;;;;34.67;19.48;;;;;;;;;;5124995;28;20082;-60
2021/12/23 08:26:52;;;;;;;37.85;19.27;;;;;;;;;;5125105;28;20075;-59
2021/12/23 08:29:19;;;;;;;34.92;19.75;;;;;;;;;;5116999;28;20039;-59
2021/12/23 08:31:55;;;;;;;35.83;20.87;;;;;;;;;;5125261;27;20102;-59
2021/12/23 08:34:22;;;;;;;31.63;17.23;;;;;;;;;;5140906;27;20807;-59
2021/12/23 08:36:48;;;;;;;34.50;18.53;;;;;;;;;;5121268;28;20135;-59
2021/12/23 08:39:15;;;;;;;36.15;20.25;;;;;;;;;;5138797;28;20051;-59
2021/12/23 08:41:42;;;;;;;35.87;20.80;;;;;;;;;;5143148;28;20042;-59
2021/12/23 08:44:08;;;;;;;31.67;19.00;;;;;;;;;;5141555;28;20130;-59
2021/12/23 08:46:34;;;;;;;36.40;20.35;;;;;;;;;;5140264;28;20039;-58
2021/12/23 08:49:00;;;;;;;29.50;19.23;;;;;;;;;;5139903;28;20035;-59
2021/12/23 08:51:26;;;;;;;31.77;19.08;;;;;;;;;;5121392;27;20075;-59
2021/12/23 08:53:52;;;;;;;32.90;18.83;;;;;;;;;;5148874;27;20051;-59
2021/12/23 08:56:18;;;;;;;38.03;21.73;;;;;;;;;;5135391;27;20059;-58
2021/12/23 08:58:44;;;;;;;40.40;21.83;;;;;;;;;;5142349;27;20101;-58
2021/12/23 09:01:11;;;;;;;38.35;21.15;;;;;;;;;;5146068;27;20070;-58
2021/12/23 09:03:37;;;;;;;40.95;21.15;;;;;;;;;;5142023;27;20054;-58
2021/12/23 09:06:04;;;;;;;38.65;21.35;;;;;;;;;;5143317;27;20138;-59
2021/12/23 09:08:31;;;;;;;37.63;21.83;;;;;;;;;;5126973;27;20148;-59
2021/12/23 09:10:58;;;;;;;34.13;19.45;;;;;;;;;;5145751;27;20069;-58
2021/12/23 09:13:25;;;;;;;35.65;22.42;;;;;;;;;;5128601;27;20050;-58
2021/12/23 09:15:51;;;;;;;39.10;22.70;;;;;;;;;;5142431;27;20046;-58
2021/12/23 09:18:21;;;;;;;46.50;23.60;;;;;;;;;;5144977;27;20076;-59
2021/12/23 09:20:48;;;;;;;36.22;22.38;;;;;;;;;;5123681;27;20089;-60
2021/12/23 09:23:14;;;;;;;40.30;22.27;;;;;;;;;;5147579;27;20141;-59
2021/12/23 09:25:41;;;;;;;35.45;20.63;;;;;;;;;;5147460;27;20035;-59
2021/12/23 09:33:20;;;;;;;39.70;22.88;;;;;;;;;;5146049;27;20106;-59
2021/12/23 09:35:46;;;;;;;43.03;24.27;;;;;;;;;;5146727;27;20042;-58
2021/12/23 09:38:13;;;;;;;37.55;22.48;;;;;;;;;;5146172;27;20126;-59
2021/12/23 09:40:39;;;;;;;42.45;24.20;;;;;;;;;;5143868;27;20079;-59
2021/12/23 09:43:07;;;;;;;45.78;26.48;;;;;;;;;;5145759;27;20047;-58
2021/12/23 09:45:34;;;;;;;40.58;23.10;;;;;;;;;;5138162;27;20091;-59
2021/12/23 09:48:04;;;;;;;39.83;24.20;;;;;;;;;;5145480;27;20066;-58
2021/12/23 09:50:32;;;;;;;44.20;25.15;;;;;;;;;;5141634;27;20073;-59
2021/12/23 09:53:00;;;;;;;44.28;25.58;;;;;;;;;;5139984;27;20055;-59
2021/12/23 09:55:27;;;;;;;42.78;24.88;;;;;;;;;;5140495;27;20039;-59
2021/12/23 09:57:54;;;;;;;48.17;25.83;;;;;;;;;;5125931;27;20559;-58
2021/12/23 10:00:22;;;;;;;48.75;27.73;;;;;;;;;;5127708;27;20056;-59
2021/12/23 10:02:49;;;;;;;57.70;27.48;;;;;;;;;;5140972;27;20050;-60
2021/12/23 10:05:17;;;;;;;57.22;30.02;;;;;;;;;;5140417;27;20134;-59
2021/12/23 10:07:45;;;;;;;55.53;29.58;;;;;;;;;;5125927;27;20098;-59
2021/12/23 10:10:21;;;;;;;51.10;29.38;;;;;;;;;;5144486;27;20043;-60
2021/12/23 10:38:16;;;;;;;72.05;36.38;;;;;;;;;;5145097;27;20130;-60
2021/12/23 10:40:44;;;;;;;65.05;33.60;;;;;;;;;;5142475;27;20155;-60
2021/12/23 10:43:20;;;;;;;82.93;37.42;;;;;;;;;;5143051;27;20314;-58
2021/12/23 10:46:04;;;;;;;76.55;37.20;;;;;;;;;;5139340;27;20058;-60
2021/12/23 10:48:33;;;;;;;77.78;37.58;;;;;;;;;;5145604;27;20039;-60
2021/12/23 10:51:08;;;;;;;60.00;31.00;;;;;;;;;;5127326;27;20043;-60
2021/12/23 10:53:47;;;;;;;73.13;35.05;;;;;;;;;;5138780;27;20073;-59
2021/12/23 10:59:03;;;;;;;73.45;38.05;;;;;;;;;;5140990;27;20100;-59
2021/12/23 11:01:30;;;;;;;73.78;35.10;;;;;;;;;;5144165;27;20049;-60
2021/12/23 11:04:03;;;;;;;76.63;35.83;;;;;;;;;;5140773;27;20051;-58
2021/12/23 11:06:36;;;;;;;87.07;40.50;;;;;;;;;;5145013;27;20039;-60
2021/12/23 11:28:46;;;;;;;84.25;37.75;;;;;;;;;;5143843;27;19920;-58
2021/12/23 11:36:59;;;;;;;71.90;35.33;;;;;;;;;;5145169;27;20055;-59
2021/12/23 11:39:45;;;;;;;88.50;37.03;;;;;;;;;;5140666;27;20039;-56
2021/12/23 11:45:10;;;;;;;91.68;39.08;;;;;;;;;;5060661;28;20120;-57
2021/12/23 11:47:39;;;;;;;89.47;38.83;;;;;;;;;;5042587;28;20065;-59
2021/12/23 11:50:05;;;;;;;87.97;40.50;;;;;;;;;;5054199;28;20052;-58
2021/12/23 11:52:31;;;;;;;97.05;42.92;;;;;;;;;;5061746;28;20041;-59
2021/12/23 11:54:57;;;;;;;103.28;40.83;;;;;;;;;;5056192;28;20124;-58
2021/12/23 11:57:26;;;;;;;87.57;38.75;;;;;;;;;;5055776;28;20110;-58
2021/12/23 12:00:13;;;;;;;86.75;38.22;;;;;;;;;;5053014;28;20044;-58
2021/12/23 12:02:39;;;;;;;95.93;40.67;;;;;;;;;;5055635;28;20045;-57
2021/12/23 12:05:07;;;;;;;97.13;41.42;;;;;;;;;;5056533;28;20124;-57
2021/12/23 12:07:33;;;;;;;98.30;39.97;;;;;;;;;;5060338;28;20049;-58
2021/12/23 12:10:08;;;;;;;96.13;41.13;;;;;;;;;;5060653;28;20486;-58
2021/12/23 12:12:35;;;;;;;100.22;39.55;;;;;;;;;;5061737;28;20044;-59
2021/12/23 12:15:03;;;;;;;78.10;35.67;;;;;;;;;;5058379;28;20137;-57
2021/12/23 12:17:33;;;;;;;90.18;40.45;;;;;;;;;;5059088;28;20109;-58
2021/12/23 12:20:13;;;;;;;90.78;38.65;;;;;;;;;;5067991;28;20056;-58
2021/12/23 12:22:45;;;;;;;93.15;38.80;;;;;;;;;;5107882;28;20051;-59
2021/12/23 12:25:24;;;;;;;86.57;38.50;;;;;;;;;;5110875;28;20040;-58
2021/12/23 12:27:50;;;;;;;;;;;;;;;;;;5121109;28;20082;-58
2021/12/23 12:30:18;;;;;;;90.25;40.00;;;;;;;;;;5112477;28;19961;-58
2021/12/23 12:32:44;;;;;;;;;;;;;;;;;;5122873;28;20521;-58
2021/12/23 12:35:21;;;;;;;89.22;37.50;;;;;;;;;;5120132;28;19978;-57
2021/12/23 12:37:51;;;;;;;91.95;39.78;;;;;;;;;;5122516;28;20069;-58
2021/12/23 12:40:17;;;;;;;89.03;38.80;;;;;;;;;;5121081;28;20047;-59
2021/12/23 12:42:47;;;;;;;91.38;38.58;;;;;;;;;;5122649;28;20045;-60
2021/12/23 12:45:24;;;;;;;106.35;46.10;;;;;;;;;;5119980;28;20549;-59
2021/12/23 12:47:56;;;;;;;97.93;41.15;;;;;;;;;;5119802;28;20065;-58
2021/12/23 12:50:27;;;;;;;88.10;38.75;;;;;;;;;;5114049;28;20067;-59
2021/12/23 12:53:00;;;;;;;86.72;40.03;;;;;;;;;;5122366;28;20048;-59
2021/12/23 12:55:27;;;;;;;86.30;40.03;;;;;;;;;;5140384;28;20261;-58
2021/12/23 12:57:55;;;;;;;92.28;40.08;;;;;;;;;;5142214;28;20440;-60
2021/12/23 13:00:28;;;;;;;89.65;41.28;;;;;;;;;;5143388;28;20095;-59
2021/12/23 13:02:56;;;;;;;99.90;41.35;;;;;;;;;;5143344;28;20050;-59
2021/12/23 13:05:34;;;;;;;98.55;41.20;;;;;;;;;;5137182;28;20265;-59
2021/12/23 13:08:05;;;;;;;84.15;38.67;;;;;;;;;;5141660;28;20120;-59
2021/12/23 13:10:33;;;;;;;97.93;40.03;;;;;;;;;;5141982;28;20055;-60
2021/12/23 13:13:01;;;;;;;98.05;39.47;;;;;;;;;;5140645;28;20047;-61
2021/12/23 13:15:31;;;;;;;96.63;43.72;;;;;;;;;;5141080;28;20047;-60
2021/12/23 13:18:03;;;;;;;98.05;42.10;;;;;;;;;;5139636;28;20035;-59
2021/12/23 13:20:50;;;;;;;101.57;42.83;;;;;;;;;;5137303;28;20707;-59
2021/12/23 13:23:21;;;;;;;95.65;39.95;;;;;;;;;;5140478;28;20092;-59
2021/12/23 13:25:53;;;;;;;84.95;37.70;;;;;;;;;;5135177;28;20074;-60
2021/12/23 13:28:23;;;;;;;98.05;39.25;;;;;;;;;;5136825;28;20043;-59
2021/12/23 13:30:50;;;;;;;96.78;41.13;;;;;;;;;;5143523;28;20106;-60
2021/12/23 13:33:16;;;;;;;107.00;42.40;;;;;;;;;;5143313;28;20040;-58
2021/12/23 13:35:42;;;;;;;91.43;38.50;;;;;;;;;;5124027;28;20052;-58
2021/12/23 13:38:10;;;;;;;97.40;43.92;;;;;;;;;;5144101;27;20050;-60
2021/12/23 13:40:40;;;;;;;101.45;41.22;;;;;;;;;;5147750;27;20095;-59
2021/12/23 13:43:06;;;;;;;106.15;43.92;;;;;;;;;;5146511;27;20055;-59
2021/12/23 13:45:32;;;;;;;102.05;45.95;;;;;;;;;;5147362;27;20035;-59
2021/12/23 13:48:00;;;;;;;109.90;45.63;;;;;;;;;;5147620;27;20065;-58
2021/12/23 13:50:27;;;;;;;115.15;45.60;;;;;;;;;;5145691;27;20384;-58
2021/12/23 13:52:55;;;;;;;123.78;47.55;;;;;;;;;;5129383;27;20181;-59
2021/12/23 13:55:24;;;;;;;106.18;42.40;;;;;;;;;;5148429;27;20046;-57
2021/12/23 13:57:53;;;;;;;111.18;44.50;;;;;;;;;;5147151;27;20043;-59
2021/12/23 14:00:30;;;;;;;105.63;41.85;;;;;;;;;;5146993;27;20031;-59
2021/12/23 14:03:12;;;;;;;111.78;43.47;;;;;;;;;;5143413;27;20113;-60
2021/12/23 14:05:42;;;;;;;109.05;43.10;;;;;;;;;;5147540;27;20035;-59
2021/12/23 14:08:11;;;;;;;104.85;40.88;;;;;;;;;;5147085;27;20058;-59
2021/12/23 14:10:40;;;;;;;116.00;44.33;;;;;;;;;;5145579;27;20042;-58
2021/12/23 14:13:09;;;;;;;96.15;41.80;;;;;;;;;;5145787;27;20051;-60
2021/12/23 14:15:35;;;;;;;102.35;40.88;;;;;;;;;;5146927;27;20038;-59
2021/12/23 14:18:07;;;;;;;110.40;44.00;;;;;;;;;;5145388;27;20075;-59
2021/12/23 14:23:24;;;;;;;94.20;39.33;;;;;;;;;;5144686;27;20064;-59
2021/12/23 14:25:59;;;;;;;104.60;42.75;;;;;;;;;;5145413;27;20047;-58
2021/12/23 14:28:25;;;;;;;113.45;43.85;;;;;;;;;;5145124;27;20110;-60
2021/12/23 14:30:51;;;;;;;112.25;42.50;;;;;;;;;;5145827;27;20502;-60
2021/12/23 14:33:19;;;;;;;110.00;43.33;;;;;;;;;;5122093;27;20047;-57
2021/12/23 14:36:00;;;;;;;106.80;41.55;;;;;;;;;;5144054;27;20047;-57
2021/12/23 14:38:31;;;;;;;108.13;40.45;;;;;;;;;;5145129;27;20050;-57
2021/12/23 14:41:01;;;;;;;119.93;44.47;;;;;;;;;;5144912;27;20099;-58
2021/12/23 14:43:27;;;;;;;108.25;43.92;;;;;;;;;;5146801;27;20039;-56
2021/12/23 14:45:57;;;;;;;110.50;43.65;;;;;;;;;;5144650;27;20050;-57
2021/12/23 14:48:23;;;;;;;101.50;41.10;;;;;;;;;;5145124;27;20070;-57
2021/12/23 14:50:52;;;;;;;102.55;41.45;;;;;;;;;;5144991;27;20065;-57
2021/12/23 14:53:21;;;;;;;96.00;40.85;;;;;;;;;;5145088;27;20096;-56
2021/12/23 14:55:58;;;;;;;118.07;44.22;;;;;;;;;;5145510;27;20106;-56
2021/12/23 14:58:25;;;;;;;106.07;43.47;;;;;;;;;;5144020;27;20452;-58
2021/12/23 15:00:52;;;;;;;105.43;40.63;;;;;;;;;;5144659;27;20076;-56
2021/12/23 15:03:23;;;;;;;114.68;45.15;;;;;;;;;;5145220;27;20063;-57
2021/12/23 15:05:51;;;;;;;89.07;40.53;;;;;;;;;;5144155;27;20048;-57
2021/12/23 15:08:27;;;;;;;108.30;43.78;;;;;;;;;;5143273;27;20042;-56
2021/12/23 15:10:55;;;;;;;100.97;41.72;;;;;;;;;;5143516;27;20054;-56
2021/12/23 15:13:27;;;;;;;91.40;37.95;;;;;;;;;;5145252;27;20070;-56
2021/12/23 15:16:08;;;;;;;109.22;42.20;;;;;;;;;;5145194;27;20068;-56
2021/12/23 15:18:43;;;;;;;110.47;41.38;;;;;;;;;;5145343;27;20043;-57
2021/12/23 15:21:18;;;;;;;108.43;43.70;;;;;;;;;;5142207;27;20042;-56
2021/12/23 15:23:45;;;;;;;101.57;39.80;;;;;;;;;;5144985;27;20043;-57
2021/12/23 15:26:20;;;;;;;109.53;41.92;;;;;;;;;;5145791;27;20043;-56
2021/12/23 15:29:04;;;;;;;106.53;40.45;;;;;;;;;;5124945;27;20087;-56
2021/12/23 15:31:31;;;;;;;107.30;39.33;;;;;;;;;;5141630;27;20558;-55